Time;durP1;ratioP1;P1;durP2;ratioP2;P2;SDS_P1;SDS_P2;PMS_P1;PMS_P2;Temp;Humidity;BMP_temperature;BMP_pressure;BME280_temperature;BME280_humidity;BME280_pressure;Samples;Min_cycle;Max_cycle;Signal;HPM_P1;HPM_P2
2021/12/23 00:02:21;;;;;;;23.35;11.13;;;0.00;87.30;;;;;;5015778;28;20025;-67
2021/12/23 00:04:47;;;;;;;25.48;11.10;;;-0.10;87.60;;;;;;5014740;28;20456;-67
2021/12/23 00:07:13;;;;;;;24.75;10.32;;;-0.10;87.90;;;;;;5005780;28;20517;-68
2021/12/23 00:10:23;;;;;;;28.02;10.75;;;-0.10;88.00;;;;;;5016129;28;20036;-68
2021/12/23 00:12:24;;;;;;;22.10;10.87;;;-0.10;88.30;;;;;;5011078;28;20057;-67
2021/12/23 00:14:51;;;;;;;23.42;10.75;;;-0.10;88.00;;;;;;5014125;28;20286;-68
2021/12/23 00:17:26;;;;;;;25.55;11.40;;;-0.10;87.60;;;;;;5011695;28;20025;-68
2021/12/23 00:25:17;;;;;;;20.20;9.90;;;-0.10;88.00;;;;;;5008614;28;20573;-68
2021/12/23 00:27:43;;;;;;;22.65;10.60;;;-0.10;88.20;;;;;;5009835;28;20033;-68
2021/12/23 00:30:09;;;;;;;20.90;10.32;;;-0.10;87.70;;;;;;5007173;28;20026;-68
2021/12/23 00:32:36;;;;;;;22.63;11.18;;;0.00;87.80;;;;;;5007519;28;20145;-67
2021/12/23 00:35:05;;;;;;;22.05;10.05;;;0.00;88.00;;;;;;5007645;28;20087;-68
2021/12/23 00:37:37;;;;;;;22.00;10.68;;;-0.10;87.70;;;;;;5002741;28;20021;-67
2021/12/23 00:40:05;;;;;;;23.00;9.80;;;-0.10;88.10;;;;;;5014012;28;20037;-67
2021/12/23 00:42:34;;;;;;;25.25;10.95;;;0.00;88.30;;;;;;5011091;28;20041;-67
2021/12/23 00:45:00;;;;;;;21.88;10.63;;;0.00;87.90;;;;;;5010137;28;20079;-67
2021/12/23 00:47:26;;;;;;;20.67;10.63;;;0.10;87.30;;;;;;5004693;28;20760;-67
2021/12/23 00:49:52;;;;;;;18.85;9.70;;;0.00;87.40;;;;;;5002681;28;20510;-67
2021/12/23 00:52:24;;;;;;;22.80;10.40;;;0.00;86.90;;;;;;5014463;28;20777;-67
2021/12/23 00:54:50;;;;;;;20.08;9.95;;;0.00;86.60;;;;;;5013622;28;20104;-67
2021/12/23 00:57:16;;;;;;;20.98;9.88;;;0.00;87.40;;;;;;5012669;28;20033;-67
2021/12/23 00:59:42;;;;;;;20.75;10.60;;;0.00;87.60;;;;;;5010480;28;20029;-67
2021/12/23 01:02:09;;;;;;;17.08;9.18;;;-0.10;87.60;;;;;;5009272;28;20040;-68
2021/12/23 01:04:35;;;;;;;24.13;11.30;;;0.00;87.30;;;;;;5002909;28;20056;-67
2021/12/23 01:07:01;;;;;;;21.13;10.35;;;0.00;87.00;;;;;;5011441;28;20033;-68
2021/12/23 01:09:27;;;;;;;21.85;10.65;;;-0.10;86.80;;;;;;5010536;28;20037;-67
2021/12/23 01:11:54;;;;;;;20.85;9.68;;;-0.10;86.70;;;;;;5007467;28;20582;-67
2021/12/23 01:17:10;;;;;;;21.42;10.55;;;-0.20;87.30;;;;;;5003414;28;20038;-68
2021/12/23 01:19:40;;;;;;;22.42;10.32;;;-0.20;87.10;;;;;;5006508;28;20115;-68
2021/12/23 01:22:08;;;;;;;21.92;9.82;;;-0.20;88.10;;;;;;5009625;28;20045;-67
2021/12/23 01:24:34;;;;;;;19.45;9.43;;;-0.20;87.80;;;;;;5008060;28;20041;-67
2021/12/23 01:27:01;;;;;;;20.85;10.82;;;-0.30;88.30;;;;;;5007014;28;20129;-67
2021/12/23 01:29:26;;;;;;;19.98;9.32;;;-0.30;88.50;;;;;;5010298;28;20025;-68
2021/12/23 01:31:52;;;;;;;21.70;10.82;;;-0.30;88.30;;;;;;5004305;28;20092;-67
2021/12/23 01:34:18;;;;;;;22.38;10.05;;;-0.30;88.30;;;;;;5015088;28;20033;-67
2021/12/23 01:36:44;;;;;;;19.60;9.85;;;-0.30;87.60;;;;;;5006796;28;20037;-67
2021/12/23 01:39:09;;;;;;;22.63;10.23;;;-0.30;88.20;;;;;;5013144;28;20046;-68
2021/12/23 01:41:35;;;;;;;17.60;8.73;;;-0.30;88.50;;;;;;5004955;28;20041;-67
2021/12/23 01:44:01;;;;;;;20.77;10.10;;;-0.30;88.40;;;;;;5008534;28;20128;-68
2021/12/23 01:46:27;;;;;;;20.05;10.13;;;-0.30;88.90;;;;;;5008910;28;20092;-67
2021/12/23 01:48:53;;;;;;;21.90;10.18;;;-0.40;88.00;;;;;;5008881;28;20052;-67
2021/12/23 01:51:20;;;;;;;20.08;9.43;;;-0.30;88.20;;;;;;5009289;28;20048;-67
2021/12/23 01:53:45;;;;;;;19.30;10.07;;;-0.40;87.80;;;;;;5009477;28;20080;-67
2021/12/23 01:56:11;;;;;;;20.83;9.65;;;-0.40;87.80;;;;;;4988283;28;20034;-67
2021/12/23 01:58:39;;;;;;;20.50;9.95;;;-0.40;88.00;;;;;;5013381;28;20497;-69
2021/12/23 02:01:05;;;;;;;20.17;9.90;;;-0.40;88.20;;;;;;5003489;28;20133;-68
2021/12/23 02:03:31;;;;;;;17.77;9.50;;;-0.50;88.30;;;;;;5016462;28;20912;-68
2021/12/23 02:05:57;;;;;;;19.85;9.95;;;-0.50;88.50;;;;;;5009619;28;20038;-68
2021/12/23 02:08:23;;;;;;;20.15;9.77;;;-0.40;88.40;;;;;;5006764;28;20041;-68
2021/12/23 02:10:49;;;;;;;22.50;10.20;;;-0.40;88.40;;;;;;5004113;28;20161;-68
2021/12/23 02:13:15;;;;;;;20.85;9.48;;;-0.50;88.50;;;;;;5002710;28;20487;-68
2021/12/23 02:15:41;;;;;;;25.50;11.63;;;-0.40;88.10;;;;;;5004717;28;20040;-68
2021/12/23 02:18:07;;;;;;;25.10;11.35;;;-0.30;87.90;;;;;;5013845;28;20486;-68
2021/12/23 02:20:34;;;;;;;23.25;10.82;;;-0.30;87.70;;;;;;5006948;28;20182;-68
2021/12/23 02:23:00;;;;;;;21.63;10.90;;;-0.30;87.60;;;;;;5004741;28;20049;-69
2021/12/23 02:25:26;;;;;;;20.17;10.10;;;-0.20;87.40;;;;;;5002485;28;20034;-68
2021/12/23 02:27:53;;;;;;;20.77;10.55;;;-0.30;87.30;;;;;;5005033;28;20041;-69
2021/12/23 02:30:27;;;;;;;22.90;11.23;;;-0.30;87.50;;;;;;5014814;28;20456;-68
2021/12/23 02:32:54;;;;;;;22.27;10.52;;;-0.30;87.60;;;;;;5007698;28;20328;-68
2021/12/23 02:35:22;;;;;;;22.60;11.10;;;-0.30;86.90;;;;;;5005045;28;20898;-69
2021/12/23 02:37:49;;;;;;;18.95;9.43;;;-0.40;87.60;;;;;;5003644;28;20046;-68
2021/12/23 02:40:25;;;;;;;22.38;10.35;;;-0.40;87.40;;;;;;5010967;28;20858;-68
2021/12/23 02:42:51;;;;;;;;;;;-0.30;87.60;;;;;;5012467;28;20033;-68
2021/12/23 02:45:17;;;;;;;21.03;9.90;;;-0.30;87.30;;;;;;5010562;28;19913;-68
2021/12/23 02:47:42;;;;;;;24.05;11.90;;;-0.40;87.70;;;;;;5005989;28;20034;-68
2021/12/23 02:50:08;;;;;;;17.63;8.75;;;-0.30;87.90;;;;;;5014101;28;20490;-68
2021/12/23 02:52:36;;;;;;;17.50;9.52;;;-0.30;87.60;;;;;;5013756;28;20029;-69
2021/12/23 02:55:04;;;;;;;19.20;9.93;;;-0.30;87.80;;;;;;5007745;28;20044;-68
2021/12/23 02:57:31;;;;;;;22.00;10.00;;;-0.20;88.20;;;;;;5004221;28;20048;-68
2021/12/23 02:59:57;;;;;;;18.77;10.07;;;-0.20;87.60;;;;;;5007312;28;20089;-68
2021/12/23 03:02:23;;;;;;;21.08;10.13;;;-0.10;88.20;;;;;;5014266;28;20926;-68
2021/12/23 03:04:48;;;;;;;22.98;10.82;;;-0.10;87.80;;;;;;5004241;28;20030;-68
2021/12/23 03:07:15;;;;;;;17.08;10.07;;;0.00;87.50;;;;;;5003417;28;20029;-68
2021/12/23 03:09:45;;;;;;;20.70;10.60;;;0.10;87.40;;;;;;5004177;28;20111;-66
2021/12/23 03:12:10;;;;;;;17.98;9.75;;;0.10;87.80;;;;;;5013569;28;20038;-66
2021/12/23 03:14:36;;;;;;;20.48;10.25;;;0.10;87.40;;;;;;5009283;28;20037;-65
2021/12/23 03:17:02;;;;;;;18.40;9.35;;;0.20;87.00;;;;;;5007644;28;20065;-65
2021/12/23 03:19:28;;;;;;;19.92;10.10;;;0.20;86.70;;;;;;5003765;28;20061;-66
2021/12/23 03:21:54;;;;;;;17.98;10.23;;;0.30;86.00;;;;;;5008184;28;20124;-66
2021/12/23 03:24:19;;;;;;;18.42;10.02;;;0.30;86.20;;;;;;4999778;28;20041;-66
2021/12/23 03:26:46;;;;;;;18.42;9.85;;;0.30;86.00;;;;;;5007044;28;20045;-66
2021/12/23 03:29:11;;;;;;;22.05;9.88;;;0.30;85.40;;;;;;5008121;28;20034;-66
2021/12/23 03:31:38;;;;;;;21.63;10.45;;;0.30;85.30;;;;;;5009524;28;20033;-66
2021/12/23 03:34:04;;;;;;;18.48;10.10;;;0.30;85.50;;;;;;5003531;28;20140;-66
2021/12/23 03:36:30;;;;;;;19.75;9.43;;;0.40;85.30;;;;;;5004489;28;20042;-68
2021/12/23 03:38:56;;;;;;;21.10;10.60;;;0.30;85.10;;;;;;5003006;28;20022;-69
2021/12/23 03:41:21;;;;;;;20.23;10.30;;;0.30;85.40;;;;;;5013714;28;20038;-69
2021/12/23 03:43:47;;;;;;;22.30;10.77;;;0.30;84.60;;;;;;5002864;28;20434;-68
2021/12/23 03:46:13;;;;;;;20.20;10.60;;;0.30;85.00;;;;;;5005459;28;20030;-68
2021/12/23 03:48:39;;;;;;;17.85;9.93;;;0.20;84.60;;;;;;5001610;28;20038;-68
2021/12/23 03:51:05;;;;;;;20.33;10.02;;;0.20;85.00;;;;;;5002755;28;20150;-69
2021/12/23 03:53:30;;;;;;;19.88;9.77;;;0.20;85.10;;;;;;5002826;28;20120;-66
2021/12/23 03:55:56;;;;;;;20.98;11.15;;;0.20;85.70;;;;;;5011062;28;20529;-66
2021/12/23 03:58:22;;;;;;;21.50;10.90;;;0.20;86.50;;;;;;5007877;28;20045;-66
2021/12/23 04:00:50;;;;;;;21.08;10.48;;;0.30;86.20;;;;;;5009199;28;20132;-66
2021/12/23 04:03:16;;;;;;;16.17;9.93;;;0.30;86.60;;;;;;5006122;28;20053;-67
2021/12/23 04:05:42;;;;;;;23.40;10.35;;;0.30;85.80;;;;;;5011811;28;20592;-66
2021/12/23 04:08:07;;;;;;;22.65;10.68;;;0.30;85.70;;;;;;5009154;28;20029;-66
2021/12/23 04:10:34;;;;;;;25.52;10.63;;;0.30;85.70;;;;;;5014140;28;20036;-67
2021/12/23 04:13:00;;;;;;;21.98;10.05;;;0.30;85.60;;;;;;5011768;28;20050;-66
2021/12/23 04:15:25;;;;;;;25.05;11.07;;;0.30;85.10;;;;;;5015819;28;20099;-66
2021/12/23 04:17:51;;;;;;;17.70;9.80;;;0.30;85.10;;;;;;5019428;28;20037;-67
2021/12/23 04:20:20;;;;;;;21.40;9.52;;;0.30;85.40;;;;;;5009203;28;20025;-67
2021/12/23 04:22:52;;;;;;;21.55;11.23;;;0.30;84.50;;;;;;5014842;28;20044;-66
2021/12/23 04:25:22;;;;;;;18.73;9.73;;;0.30;85.10;;;;;;5022548;28;20044;-66
2021/12/23 04:27:49;;;;;;;21.00;10.40;;;0.20;85.70;;;;;;5017342;28;20026;-67
2021/12/23 04:30:15;;;;;;;21.02;10.88;;;0.30;85.80;;;;;;5018970;28;20115;-66
2021/12/23 04:32:41;;;;;;;23.33;11.68;;;0.30;86.00;;;;;;5021978;28;20140;-67
2021/12/23 04:35:08;;;;;;;20.02;9.95;;;0.40;84.50;;;;;;5007850;28;20030;-67
2021/12/23 04:37:34;;;;;;;24.10;10.98;;;0.40;83.60;;;;;;5019408;28;20033;-67
2021/12/23 04:40:00;;;;;;;21.98;10.30;;;0.40;84.20;;;;;;5009280;28;20637;-67
2021/12/23 04:42:26;;;;;;;17.65;9.50;;;0.40;83.90;;;;;;5009983;28;20444;-67
2021/12/23 04:44:52;;;;;;;20.75;10.77;;;0.40;84.20;;;;;;5004757;28;20045;-66
2021/12/23 04:47:18;;;;;;;17.63;9.93;;;0.30;84.20;;;;;;5007681;28;20107;-67
2021/12/23 04:49:44;;;;;;;18.98;10.98;;;0.20;84.70;;;;;;5015402;28;20033;-67
2021/12/23 04:52:10;;;;;;;22.20;11.15;;;0.20;85.40;;;;;;5012095;28;20613;-66
2021/12/23 04:54:35;;;;;;;22.73;11.23;;;0.20;84.60;;;;;;5008816;28;20085;-66
2021/12/23 04:57:01;;;;;;;23.83;10.98;;;0.20;84.00;;;;;;5010596;28;20497;-67
2021/12/23 04:59:27;;;;;;;22.35;11.27;;;0.20;84.40;;;;;;5012643;28;20030;-66
2021/12/23 05:01:52;;;;;;;21.15;11.70;;;0.20;85.00;;;;;;5007662;28;20125;-66
2021/12/23 05:04:18;;;;;;;20.80;11.73;;;0.30;85.10;;;;;;5014294;28;20041;-66
2021/12/23 05:06:44;;;;;;;22.95;11.70;;;0.30;85.10;;;;;;5013894;28;20036;-66
2021/12/23 05:09:09;;;;;;;20.42;10.50;;;0.40;85.10;;;;;;5013416;28;20045;-67
2021/12/23 05:11:35;;;;;;;25.52;11.55;;;0.30;85.10;;;;;;5008729;28;20122;-66
2021/12/23 05:14:01;;;;;;;21.40;11.40;;;0.40;84.40;;;;;;5005047;28;20030;-67
2021/12/23 05:16:27;;;;;;;22.90;10.93;;;0.40;84.10;;;;;;5011585;28;20034;-66
2021/12/23 05:18:52;;;;;;;25.80;12.50;;;0.30;84.70;;;;;;5012879;28;20042;-67
2021/12/23 05:21:18;;;;;;;24.70;12.20;;;0.40;84.30;;;;;;5016114;28;20021;-66
2021/12/23 05:23:44;;;;;;;24.13;11.15;;;0.40;84.40;;;;;;5012417;28;20475;-66
2021/12/23 05:26:09;;;;;;;26.08;12.40;;;0.50;84.00;;;;;;5011038;28;20034;-66
2021/12/23 05:28:36;;;;;;;22.83;11.25;;;0.60;83.90;;;;;;5003661;28;20036;-66
2021/12/23 05:31:02;;;;;;;23.35;12.15;;;0.40;83.40;;;;;;5003711;28;20026;-66
2021/12/23 05:33:28;;;;;;;22.13;11.15;;;0.50;83.30;;;;;;5012647;28;20045;-67
2021/12/23 05:35:55;;;;;;;25.77;11.10;;;0.50;82.70;;;;;;5009703;28;20033;-67
2021/12/23 05:38:21;;;;;;;27.35;12.35;;;0.50;83.10;;;;;;5006089;28;20026;-66
2021/12/23 05:40:47;;;;;;;21.38;11.43;;;0.50;82.90;;;;;;5004851;28;20034;-67
2021/12/23 05:43:13;;;;;;;23.65;11.15;;;0.50;83.90;;;;;;5006772;28;20524;-66
2021/12/23 05:45:38;;;;;;;24.95;11.30;;;0.60;84.30;;;;;;5007867;28;20026;-67
2021/12/23 05:48:04;;;;;;;23.48;11.25;;;0.60;83.90;;;;;;5013247;28;20034;-66
2021/12/23 05:50:30;;;;;;;21.65;11.23;;;0.60;83.00;;;;;;5007853;28;20128;-67
2021/12/23 05:52:56;;;;;;;24.95;11.88;;;0.70;83.70;;;;;;5005663;28;20078;-66
2021/12/23 05:55:22;;;;;;;27.30;12.55;;;0.70;83.10;;;;;;5005080;28;20155;-66
2021/12/23 05:57:48;;;;;;;22.98;11.82;;;0.70;83.10;;;;;;5013061;28;20515;-66
2021/12/23 06:00:21;;;;;;;25.15;11.80;;;0.70;83.60;;;;;;5012806;28;20119;-66
2021/12/23 06:02:47;;;;;;;25.88;11.43;;;0.70;83.20;;;;;;5012813;28;20362;-68
2021/12/23 06:05:13;;;;;;;24.60;11.93;;;0.70;83.90;;;;;;5007765;28;20687;-68
2021/12/23 06:07:40;;;;;;;24.20;11.68;;;0.70;84.00;;;;;;5011759;28;20102;-68
2021/12/23 06:10:06;;;;;;;22.35;11.38;;;0.80;83.50;;;;;;5009269;28;20037;-68
2021/12/23 06:12:32;;;;;;;24.98;11.75;;;0.80;83.00;;;;;;5006503;28;20034;-68
2021/12/23 06:14:57;;;;;;;23.23;11.60;;;0.80;82.20;;;;;;5011999;28;20045;-68
2021/12/23 06:17:23;;;;;;;19.27;10.57;;;0.80;83.00;;;;;;5011095;28;20112;-68
2021/12/23 06:19:48;;;;;;;24.23;11.98;;;0.90;82.50;;;;;;5007842;28;20258;-68
2021/12/23 06:22:14;;;;;;;23.90;12.48;;;0.90;82.70;;;;;;5009855;28;20060;-68
2021/12/23 06:24:45;;;;;;;23.55;11.90;;;0.90;82.70;;;;;;5015176;28;20088;-68
2021/12/23 06:27:12;;;;;;;28.25;11.57;;;1.00;81.80;;;;;;5011023;28;20040;-68
2021/12/23 06:29:37;;;;;;;22.52;11.35;;;1.00;82.50;;;;;;5012935;28;20057;-70
2021/12/23 06:32:04;;;;;;;24.45;12.18;;;0.70;81.50;;;;;;5010962;28;21531;-68
2021/12/23 06:34:29;;;;;;;25.27;12.32;;;0.50;82.70;;;;;;5011036;28;20049;-68
2021/12/23 06:36:55;;;;;;;26.42;12.15;;;0.40;84.10;;;;;;5005035;28;20030;-67
2021/12/23 06:39:21;;;;;;;25.02;12.30;;;0.50;84.20;;;;;;5005428;28;20045;-69
2021/12/23 06:41:46;;;;;;;26.77;12.20;;;0.50;83.30;;;;;;5009381;28;20069;-67
2021/12/23 06:44:12;;;;;;;23.75;12.73;;;0.60;84.20;;;;;;5013796;28;20172;-66
2021/12/23 06:46:38;;;;;;;24.08;11.57;;;0.60;84.40;;;;;;5009753;28;20042;-67
2021/12/23 06:49:14;;;;;;;23.73;11.68;;;0.70;83.60;;;;;;5007306;28;20034;-66
2021/12/23 06:51:40;;;;;;;22.75;11.38;;;0.80;83.20;;;;;;5001869;28;20110;-68
2021/12/23 06:54:07;;;;;;;24.67;11.48;;;0.80;83.20;;;;;;5002575;28;20029;-68
2021/12/23 06:56:33;;;;;;;25.80;11.32;;;0.80;82.10;;;;;;5010631;28;20285;-68
2021/12/23 06:58:59;;;;;;;26.27;12.27;;;0.80;82.40;;;;;;5011547;28;20110;-68
2021/12/23 07:01:24;;;;;;;28.27;13.45;;;0.90;82.20;;;;;;5015835;28;20088;-67
2021/12/23 07:06:30;;;;;;;26.83;12.25;;;0.90;82.40;;;;;;5012510;28;20047;-67
2021/12/23 07:08:56;;;;;;;25.45;11.90;;;0.90;82.40;;;;;;5000474;28;20029;-67
2021/12/23 07:11:22;;;;;;;24.77;11.63;;;0.90;82.50;;;;;;5010772;28;20824;-67
2021/12/23 07:13:48;;;;;;;26.05;11.90;;;1.00;82.50;;;;;;5008869;28;20041;-68
2021/12/23 07:16:14;;;;;;;22.48;10.73;;;1.00;82.80;;;;;;5004422;28;20048;-67
2021/12/23 07:18:40;;;;;;;25.42;12.43;;;1.00;82.70;;;;;;5003830;28;20061;-67
2021/12/23 07:21:05;;;;;;;22.00;11.65;;;1.10;82.40;;;;;;5001344;28;20073;-67
2021/12/23 07:23:31;;;;;;;26.23;12.55;;;1.10;82.30;;;;;;5005142;28;20040;-67
2021/12/23 07:25:57;;;;;;;22.15;11.07;;;1.10;82.10;;;;;;5005644;28;20040;-67
2021/12/23 07:28:22;;;;;;;26.67;13.10;;;1.10;81.50;;;;;;5007984;28;20040;-67
2021/12/23 07:30:48;;;;;;;22.25;11.13;;;1.10;81.80;;;;;;5003139;28;20041;-66
2021/12/23 07:33:14;;;;;;;21.38;10.30;;;1.10;82.10;;;;;;5002945;28;20060;-67
2021/12/23 07:35:40;;;;;;;19.35;11.07;;;1.10;82.60;;;;;;5003393;28;20092;-67
2021/12/23 07:38:06;;;;;;;23.13;11.68;;;1.10;83.30;;;;;;5004223;28;20038;-67
2021/12/23 07:40:32;;;;;;;22.85;11.52;;;1.20;82.60;;;;;;5006887;28;20079;-68
2021/12/23 07:43:09;;;;;;;26.33;12.38;;;1.20;83.10;;;;;;5005663;28;20041;-68
2021/12/23 07:45:36;;;;;;;22.60;11.45;;;1.20;82.60;;;;;;5008364;28;20472;-67
2021/12/23 07:48:02;;;;;;;27.20;11.93;;;1.30;82.00;;;;;;5004084;28;20041;-69
2021/12/23 07:50:28;;;;;;;25.48;12.30;;;1.30;81.20;;;;;;4999186;28;20038;-69
2021/12/23 07:52:54;;;;;;;24.25;12.00;;;1.20;80.70;;;;;;5004486;28;20037;-69
2021/12/23 07:55:21;;;;;;;27.42;12.52;;;1.20;81.00;;;;;;5003770;28;20113;-68
2021/12/23 07:57:47;;;;;;;25.08;12.10;;;1.20;80.60;;;;;;5003616;28;20069;-68
2021/12/23 08:00:14;;;;;;;27.67;12.40;;;1.20;80.70;;;;;;5003138;28;20799;-68
2021/12/23 08:02:40;;;;;;;133.05;62.17;;;1.20;80.90;;;;;;5009939;28;20140;-68
2021/12/23 08:05:07;;;;;;;37.30;20.58;;;1.30;81.20;;;;;;5007615;28;20072;-68
2021/12/23 08:07:32;;;;;;;33.30;15.65;;;1.30;80.40;;;;;;5016041;28;20497;-68
2021/12/23 08:09:58;;;;;;;23.40;13.15;;;1.30;80.70;;;;;;5008139;28;20034;-67
2021/12/23 08:12:24;;;;;;;23.73;12.13;;;1.40;80.80;;;;;;5003255;28;20036;-67
2021/12/23 08:14:50;;;;;;;24.08;12.18;;;1.40;80.90;;;;;;5013554;28;20033;-68
2021/12/23 08:17:15;;;;;;;21.05;12.02;;;1.40;80.80;;;;;;5000702;28;20551;-68
2021/12/23 08:19:41;;;;;;;23.40;11.98;;;1.40;80.40;;;;;;5010010;28;20037;-66
2021/12/23 08:22:08;;;;;;;25.95;11.95;;;1.40;80.50;;;;;;5007125;28;20026;-68
2021/12/23 08:24:34;;;;;;;25.13;11.43;;;1.30;81.00;;;;;;5013705;28;20037;-68
2021/12/23 08:27:00;;;;;;;21.90;10.50;;;1.40;80.30;;;;;;5004141;28;20096;-67
2021/12/23 08:29:27;;;;;;;25.55;12.35;;;1.40;80.50;;;;;;5009205;28;20029;-68
2021/12/23 08:31:53;;;;;;;23.98;12.18;;;1.50;80.20;;;;;;5010988;28;20036;-67
2021/12/23 08:34:23;;;;;;;25.38;11.25;;;1.50;80.30;;;;;;4994170;28;20042;-67
2021/12/23 08:36:50;;;;;;;25.98;11.85;;;1.40;80.30;;;;;;5012045;28;20065;-68
2021/12/23 08:39:17;;;;;;;26.63;12.43;;;1.40;80.70;;;;;;5014973;28;20019;-67
2021/12/23 08:41:44;;;;;;;23.70;11.55;;;1.50;80.80;;;;;;5002904;28;20054;-68
2021/12/23 08:44:10;;;;;;;22.20;11.30;;;1.50;80.20;;;;;;4985747;28;20045;-67
2021/12/23 08:46:36;;;;;;;22.65;10.88;;;1.60;79.20;;;;;;5008771;28;20052;-67
2021/12/23 08:49:03;;;;;;;23.95;11.27;;;1.60;80.00;;;;;;5012070;28;20096;-68
2021/12/23 08:51:28;;;;;;;26.27;11.30;;;1.60;79.80;;;;;;5005276;28;20120;-66
2021/12/23 08:53:54;;;;;;;22.90;11.68;;;1.60;79.60;;;;;;5001961;28;20064;-67
2021/12/23 08:56:20;;;;;;;27.63;12.77;;;1.70;79.50;;;;;;5002648;28;20099;-68
2021/12/23 08:58:46;;;;;;;22.50;12.38;;;1.70;79.60;;;;;;4999650;28;20100;-68
2021/12/23 09:01:11;;;;;;;25.60;12.07;;;1.70;79.30;;;;;;5003903;28;20048;-68
2021/12/23 09:03:37;;;;;;;23.67;11.35;;;1.80;79.50;;;;;;5013486;28;20029;-68
2021/12/23 09:06:04;;;;;;;21.98;11.52;;;1.80;80.40;;;;;;4996374;28;20499;-67
2021/12/23 09:08:30;;;;;;;19.17;10.13;;;1.80;79.20;;;;;;5009019;28;20137;-68
2021/12/23 09:10:58;;;;;;;21.10;10.48;;;1.90;78.50;;;;;;5004147;28;20038;-68
2021/12/23 09:13:24;;;;;;;22.77;10.95;;;2.00;79.20;;;;;;5003609;28;20040;-68
2021/12/23 09:15:51;;;;;;;20.08;11.32;;;2.00;78.90;;;;;;5006058;28;20041;-67
2021/12/23 09:18:19;;;;;;;22.00;10.27;;;2.00;78.70;;;;;;5015234;28;20029;-67
2021/12/23 09:20:45;;;;;;;21.13;10.48;;;2.10;78.20;;;;;;5009138;28;20825;-68
2021/12/23 09:23:12;;;;;;;20.77;10.18;;;2.10;78.80;;;;;;5006764;28;20029;-67
2021/12/23 09:25:38;;;;;;;24.48;11.75;;;2.10;79.10;;;;;;5003423;28;20417;-68
2021/12/23 09:33:16;;;;;;;19.85;10.20;;;2.30;77.60;;;;;;5009782;28;20359;-68
2021/12/23 09:35:43;;;;;;;20.48;11.70;;;2.20;76.80;;;;;;5011881;28;20041;-68
2021/12/23 09:38:09;;;;;;;19.90;10.30;;;2.20;76.90;;;;;;5004353;28;20080;-67
2021/12/23 09:40:36;;;;;;;19.40;9.63;;;2.30;76.60;;;;;;5002383;28;20454;-67
2021/12/23 09:43:05;;;;;;;19.90;9.88;;;2.20;75.70;;;;;;5001375;28;20072;-67
2021/12/23 09:45:32;;;;;;;19.00;9.63;;;2.10;76.40;;;;;;5010992;28;20132;-65
2021/12/23 09:47:58;;;;;;;19.25;10.30;;;2.10;77.20;;;;;;5005773;28;20033;-65
2021/12/23 09:50:29;;;;;;;20.63;9.30;;;2.10;76.50;;;;;;5010722;28;20500;-67
2021/12/23 09:52:55;;;;;;;17.45;8.70;;;2.10;76.40;;;;;;5003455;28;20919;-66
2021/12/23 09:55:26;;;;;;;19.40;10.30;;;2.20;77.20;;;;;;5014087;28;20041;-66
2021/12/23 09:57:55;;;;;;;21.40;10.65;;;2.20;76.10;;;;;;5003094;28;20152;-66
2021/12/23 10:00:24;;;;;;;22.73;9.98;;;2.10;75.90;;;;;;5006545;28;20025;-66
2021/12/23 10:02:51;;;;;;;18.63;9.65;;;2.00;76.60;;;;;;5003822;28;20978;-66
2021/12/23 10:05:24;;;;;;;21.17;9.57;;;2.00;76.80;;;;;;4987703;28;20032;-66
2021/12/23 10:07:50;;;;;;;18.88;10.57;;;2.00;77.20;;;;;;5004112;28;20469;-67
2021/12/23 10:10:27;;;;;;;19.75;9.52;;;1.90;76.80;;;;;;5007789;28;20022;-67
2021/12/23 10:38:06;;;;;;;18.00;8.88;;;2.30;76.00;;;;;;5008921;28;20044;-68
2021/12/23 10:40:35;;;;;;;16.98;9.77;;;2.30;76.40;;;;;;5004648;28;20694;-66
2021/12/23 10:43:00;;;;;;;18.55;8.90;;;2.40;76.20;;;;;;5005584;28;20112;-67
2021/12/23 10:45:42;;;;;;;15.90;8.93;;;2.50;75.60;;;;;;5001417;28;20045;-67
2021/12/23 10:48:12;;;;;;;17.42;8.73;;;2.50;75.50;;;;;;5014108;28;20033;-66
2021/12/23 10:50:48;;;;;;;17.58;8.85;;;2.60;75.00;;;;;;5004178;28;20029;-67
2021/12/23 10:53:38;;;;;;;18.90;8.48;;;2.70;74.20;;;;;;5018501;28;20033;-67
2021/12/23 10:59:05;;;;;;;15.10;7.97;;;2.70;74.00;;;;;;5007123;28;20041;-66
2021/12/23 11:01:31;;;;;;;16.50;8.82;;;2.70;74.80;;;;;;5007968;28;20040;-67
2021/12/23 11:04:05;;;;;;;14.13;8.30;;;2.80;74.40;;;;;;4998910;28;20748;-65
2021/12/23 11:06:37;;;;;;;18.15;8.70;;;2.80;73.50;;;;;;5009001;28;20579;-65
2021/12/23 11:42:00;;;;;;;16.33;8.90;;;2.90;75.70;;;;;;5007127;28;20037;-68
2021/12/23 11:44:30;;;;;;;15.43;8.68;;;2.90;75.60;;;;;;5007415;28;20091;-66
2021/12/23 11:46:58;;;;;;;17.17;8.90;;;3.00;75.20;;;;;;4998615;28;20022;-67
2021/12/23 11:49:23;;;;;;;15.68;8.23;;;3.10;75.10;;;;;;5015949;28;20025;-67
2021/12/23 11:54:25;;;;;;;15.60;8.95;;;3.20;75.80;;;;;;5011868;28;20022;-65
2021/12/23 11:56:58;;;;;;;15.38;8.02;;;3.30;74.10;;;;;;5002655;28;20045;-66
2021/12/23 11:59:25;;;;;;;14.32;7.93;;;3.40;74.10;;;;;;5004734;28;20077;-66
2021/12/23 12:01:53;;;;;;;15.82;7.72;;;3.50;73.70;;;;;;5001246;28;20026;-66
2021/12/23 12:04:27;;;;;;;16.83;8.75;;;3.50;73.50;;;;;;5012687;28;20171;-66
2021/12/23 12:06:54;;;;;;;21.45;9.10;;;3.60;73.20;;;;;;5005115;28;20789;-64
2021/12/23 12:09:31;;;;;;;14.27;8.15;;;3.60;73.00;;;;;;5008259;28;20048;-64
2021/12/23 12:11:59;;;;;;;21.70;9.02;;;3.50;73.30;;;;;;5003761;28;20501;-64
2021/12/23 12:14:40;;;;;;;15.52;7.72;;;3.50;73.50;;;;;;5000445;28;20510;-63
2021/12/23 12:17:23;;;;;;;19.88;8.75;;;3.50;73.70;;;;;;5011374;28;20410;-63
2021/12/23 12:20:23;;;;;;;17.45;8.27;;;3.50;73.70;;;;;;5004651;28;20037;-63
2021/12/23 12:23:06;;;;;;;17.63;8.75;;;3.40;73.50;;;;;;5003598;28;20128;-64
2021/12/23 12:25:38;;;;;;;17.13;8.07;;;3.50;73.40;;;;;;5007454;28;20150;-66
2021/12/23 12:28:04;;;;;;;18.50;9.57;;;3.40;74.00;;;;;;5002089;28;20030;-66
2021/12/23 12:30:37;;;;;;;14.07;8.32;;;3.40;73.40;;;;;;4998677;28;20041;-66
2021/12/23 12:33:29;;;;;;;15.98;8.43;;;3.50;73.60;;;;;;5011658;28;20599;-66
2021/12/23 12:35:58;;;;;;;16.02;9.68;;;3.70;73.00;;;;;;5011478;28;20799;-66
2021/12/23 12:38:28;;;;;;;16.75;8.25;;;3.70;72.60;;;;;;5019191;28;20038;-66
2021/12/23 12:40:57;;;;;;;17.25;8.68;;;3.70;72.60;;;;;;5016657;28;20044;-66
2021/12/23 12:43:39;;;;;;;17.20;8.43;;;3.70;73.30;;;;;;5011591;28;20072;-66
2021/12/23 12:46:04;;;;;;;16.63;8.90;;;3.80;73.40;;;;;;5017407;28;20036;-66
2021/12/23 12:48:55;;;;;;;13.93;7.18;;;3.70;72.60;;;;;;5011750;28;20053;-66
2021/12/23 12:51:27;;;;;;;16.65;8.43;;;3.70;74.10;;;;;;5011790;28;20029;-66
2021/12/23 12:54:02;;;;;;;14.05;8.13;;;3.80;73.30;;;;;;5010551;28;20040;-66
2021/12/23 12:56:29;;;;;;;13.68;7.53;;;3.80;72.90;;;;;;5007203;28;20034;-67
2021/12/23 12:58:55;;;;;;;14.57;7.93;;;3.70;73.10;;;;;;5005072;28;20079;-66
2021/12/23 13:01:37;;;;;;;13.38;7.88;;;3.80;73.70;;;;;;5013747;28;20029;-66
2021/12/23 13:04:05;;;;;;;14.70;7.90;;;3.80;73.40;;;;;;5010186;28;20057;-66
2021/12/23 13:06:41;;;;;;;12.98;7.97;;;3.70;72.40;;;;;;5008910;28;20033;-66
2021/12/23 13:09:35;;;;;;;12.95;7.57;;;3.70;73.00;;;;;;5013537;28;20091;-66
2021/12/23 13:12:40;;;;;;;15.20;8.10;;;3.80;73.70;;;;;;5025250;28;20845;-66
2021/12/23 13:15:39;;;;;;;14.45;7.97;;;3.80;73.50;;;;;;5011826;28;20064;-66
2021/12/23 13:18:18;;;;;;;16.73;7.72;;;3.90;73.50;;;;;;5008715;28;20241;-66
2021/12/23 13:20:54;;;;;;;13.93;7.30;;;3.90;73.50;;;;;;5013914;28;20519;-67
2021/12/23 13:23:38;;;;;;;20.75;8.23;;;3.90;73.60;;;;;;5004395;28;20042;-67
2021/12/23 13:26:11;;;;;;;18.83;9.45;;;4.00;74.10;;;;;;5010818;28;20038;-67
2021/12/23 13:28:40;;;;;;;13.93;8.05;;;4.00;74.40;;;;;;5009188;28;20029;-67
2021/12/23 13:31:16;;;;;;;16.67;7.70;;;4.00;74.40;;;;;;5011219;28;20046;-67
2021/12/23 13:33:55;;;;;;;16.88;8.73;;;4.10;74.80;;;;;;5013486;28;20117;-67
2021/12/23 13:36:53;;;;;;;18.08;9.05;;;4.10;74.40;;;;;;5006321;28;20048;-67
2021/12/23 13:39:31;;;;;;;16.17;8.32;;;4.00;74.30;;;;;;5018995;28;20085;-66
2021/12/23 13:42:02;;;;;;;17.80;8.55;;;4.00;74.50;;;;;;5017606;28;20119;-67
2021/12/23 13:44:31;;;;;;;15.98;9.00;;;4.00;74.50;;;;;;5015550;28;20057;-68
2021/12/23 13:47:00;;;;;;;18.55;8.73;;;3.90;74.60;;;;;;5007427;28;20042;-67
2021/12/23 13:49:35;;;;;;;14.50;8.00;;;3.90;74.00;;;;;;5014305;28;20527;-66
2021/12/23 13:52:03;;;;;;;15.07;7.63;;;3.90;75.30;;;;;;5009336;28;20094;-65
2021/12/23 13:54:34;;;;;;;17.85;8.65;;;3.90;75.40;;;;;;5003703;28;20137;-65
2021/12/23 13:57:01;;;;;;;17.30;8.27;;;3.90;75.40;;;;;;5013596;28;20117;-67
2021/12/23 13:59:29;;;;;;;14.07;7.82;;;3.90;74.90;;;;;;5013826;28;20868;-69
2021/12/23 14:02:00;;;;;;;14.40;8.30;;;4.00;75.50;;;;;;5011652;28;20571;-65
2021/12/23 14:04:34;;;;;;;12.90;7.35;;;4.00;74.90;;;;;;4999037;28;20514;-68